Aérodrome :
LOGIN :

S'inscrire | Disclaimer

   EN    FR    IT 

 










Légende :    VFR   VFR Marginal   IFR   IFR Intensif   IFR Très Intensif
Visi : 
Plafond : 
>= 8 km
>= 3000ft
5 à 8 km
1000 à 3000 ft
1500m à 5 km
500 à 1000 ft
800 à 1500m
200 à 500 ft
< 800m
< 200 ft
Symboles :   Orages  Brouillard  Fortes neiges  Fortes précipitations  Vent > 20 kt
SIGMETs :   Divers  Orages  Givrage  Turbulence  Onde Orograph.  Cendres Volcan.







- Altitude de l'aérodrome : 194 ft


EBCV - Chièvres

DERNIER METAR :
  • 172225Z AUTO 20017KT 2900 RA BKN006/// OVC026/// 04/03 Q1020 YLO

METARs EXPIRÉS :
  • 172155Z AUTO 20019KT 4000 RA BKN006/// OVC043/// 03/03 Q1020 YLO
  • 172125Z AUTO 20015KT 3600 -RA OVC007/// 03/03 Q1021 YLO
  • 172055Z AUTO 19014KT 2200 -RA OVC009/// 03/02 Q1022 YLO
  • 172047Z AUTO 19014KT 3600 DZ OVC010/// 03/02 Q1022 YLO
  • 172040Z AUTO 19013KT 4400 DZ OVC016/// 03/02 Q1022 GRN
  • 172025Z AUTO 19012KT 6000 DZ OVC028/// 03/02 Q1022 WHT
  • 172008Z AUTO 19013KT 4400 DZ OVC020/// 03/02 Q1022 GRN
  • 171955Z AUTO 20013KT 7000 -DZ OVC020/// 03/02 Q1023 WHT

TAF TAF EBCV
Valide du 17 à 19h jusqu'au 18 à 07h UTC


171541Z 1719/1807 26012KT 8000 SCT020 BKN040
TEMPO 1719/1805 28015KT 3000 -RA -RASN SCT008 BKN015
BECMG 1805/1807 30010KT 6000 NSW SCT010 BKN018 BY EBWM
Pas de NOTAMs connus pour ce terrain.



MET'MAP, la Météo Aéronautique d'un coup d'oeil ! - Copyright ORBIFLY Décembre 2007 - Disclaimer

ORBIFLY MET'MAP TEAM :

Programmation & Développement : Alexandra Zaïnal
Conception & Développement : Baudouin d'Aumeries
Co-Programmation & Développement : Marc-Olivier Méhu
Soutien technique & logistique : Manuel Goepfert

Contact : metmap@orbifly.com




SOURCES & CREDITS :

   NOAA